createdAt,value
2022-08-18T00:00:47.010Z,15.15
2022-08-18T00:03:01.079Z,12.32
2022-08-18T00:05:03.867Z,16.02
2022-08-18T00:07:15.899Z,9.50
2022-08-18T00:09:17.819Z,13.43
2022-08-18T00:11:20.268Z,13.73
2022-08-18T00:13:22.400Z,11.25
2022-08-18T00:15:26.295Z,19.48
2022-08-18T00:17:29.878Z,14.55
2022-08-18T00:19:47.734Z,18.17
2022-08-18T00:21:50.067Z,17.80
2022-08-18T00:23:52.174Z,16.63
2022-08-18T00:25:55.378Z,13.18
2022-08-18T00:27:57.769Z,14.50
2022-08-18T00:30:02.584Z,13.93
2022-08-18T00:32:19.515Z,14.82
2022-08-18T00:34:21.867Z,14.63
2022-08-18T00:36:23.869Z,15.05
2022-08-18T00:38:25.785Z,12.60
2022-08-18T00:40:38.099Z,12.38
2022-08-18T00:42:53.551Z,12.50
2022-08-18T00:44:56.527Z,13.85
2022-08-18T00:46:58.591Z,19.80
2022-08-18T00:49:01.591Z,14.50
2022-08-18T00:51:11.793Z,20.17
2022-08-18T00:53:38.073Z,17.48
2022-08-18T00:55:54.511Z,20.60
2022-08-18T00:58:05.007Z,16.60
2022-08-18T01:00:16.703Z,11.70
2022-08-18T01:02:26.683Z,20.63
2022-08-18T01:04:42.217Z,18.27
2022-08-18T01:07:01.658Z,13.60
2022-08-18T01:09:04.209Z,20.70
2022-08-18T01:11:06.514Z,16.65
2022-08-18T01:13:09.858Z,15.68
2022-08-18T01:15:28.947Z,15.33
2022-08-18T01:17:51.430Z,16.33
2022-08-18T01:20:12.616Z,16.08
2022-08-18T01:22:23.487Z,18.42
2022-08-18T01:24:56.200Z,14.57
2022-08-18T01:26:58.112Z,17.67
2022-08-18T01:29:06.140Z,24.98
2022-08-18T01:31:10.080Z,16.90
2022-08-18T01:33:12.465Z,14.75
2022-08-18T01:35:17.213Z,22.60
2022-08-18T01:37:22.698Z,23.88
2022-08-18T01:41:24.575Z,22.23
2022-08-18T01:41:47.028Z,25.73
2022-08-18T01:43:49.958Z,17.90
2022-08-18T01:45:52.050Z,19.33
2022-08-18T01:47:53.962Z,18.10
2022-08-18T01:49:57.134Z,21.35
2022-08-18T01:51:59.155Z,18.70
2022-08-18T01:54:03.548Z,19.67
2022-08-18T01:56:06.728Z,24.13
2022-08-18T01:58:08.640Z,22.23
2022-08-18T02:00:13.407Z,15.60
2022-08-18T02:04:35.635Z,18.80
2022-08-18T02:06:39.743Z,17.70
2022-08-18T02:08:53.481Z,21.40
2022-08-18T02:10:58.395Z,27.63
2022-08-18T02:13:00.504Z,17.40
2022-08-18T02:15:02.457Z,29.25
2022-08-18T02:17:07.964Z,19.75
2022-08-18T02:19:12.490Z,23.40
2022-08-18T02:21:18.950Z,23.65
2022-08-18T02:23:21.858Z,24.80
2022-08-18T02:25:23.813Z,26.70
2022-08-18T02:27:27.960Z,25.85
2022-08-18T02:31:31.997Z,23.65
2022-08-18T02:33:34.358Z,23.90
2022-08-18T02:35:36.961Z,24.13
2022-08-18T02:37:42.456Z,24.98
2022-08-18T02:39:44.722Z,18.30
2022-08-18T02:41:47.089Z,26.17
2022-08-18T02:43:50.009Z,27.67
2022-08-18T02:45:53.414Z,21.70
2022-08-18T02:47:56.974Z,17.73
2022-08-18T02:49:59.057Z,16.35
2022-08-18T02:52:01.008Z,21.83
2022-08-18T02:54:03.494Z,18.33
2022-08-18T02:56:39.955Z,21.45
2022-08-18T02:58:44.242Z,22.10
2022-08-18T03:00:47.750Z,22.42
2022-08-18T03:02:52.116Z,24.23
2022-08-18T03:04:54.322Z,21.55
2022-08-18T03:06:57.867Z,18.98
2022-08-18T03:08:59.884Z,26.98
2022-08-18T03:11:01.872Z,22.00
2022-08-18T03:13:03.857Z,23.55
2022-08-18T03:15:06.149Z,21.77
2022-08-18T03:17:09.505Z,20.60
2022-08-18T03:19:15.003Z,21.73
2022-08-18T03:21:23.614Z,16.50
2022-08-18T03:23:30.139Z,16.98
2022-08-18T03:25:32.756Z,22.55
2022-08-18T03:27:34.829Z,18.85
2022-08-18T03:29:37.282Z,19.35
2022-08-18T03:31:40.405Z,18.75
2022-08-18T03:33:43.746Z,24.97
2022-08-18T03:35:45.840Z,21.55
2022-08-18T03:37:47.996Z,21.60
2022-08-18T03:39:51.942Z,16.90
2022-08-18T03:44:03.243Z,19.38
2022-08-18T03:46:09.854Z,22.13
2022-08-18T03:48:11.883Z,18.95
2022-08-18T03:50:14.260Z,15.73
2022-08-18T03:52:16.757Z,19.70
2022-08-18T03:54:19.313Z,18.77
2022-08-18T03:56:33.151Z,20.30
2022-08-18T03:58:35.928Z,14.00
2022-08-18T04:00:38.768Z,25.42
2022-08-18T04:02:40.798Z,16.83
2022-08-18T04:04:43.049Z,17.05
2022-08-18T04:06:51.658Z,16.98
2022-08-18T04:08:56.246Z,18.27
2022-08-18T04:10:58.149Z,17.63
2022-08-18T04:13:00.242Z,15.30
2022-08-18T04:15:03.625Z,17.95
2022-08-18T04:17:06.180Z,17.33
2022-08-18T04:19:09.090Z,17.88
2022-08-18T04:21:13.767Z,15.93
2022-08-18T04:23:17.283Z,14.30
2022-08-18T04:25:19.854Z,19.88
2022-08-18T04:27:22.365Z,10.95
2022-08-18T04:29:24.749Z,16.98
2022-08-18T04:31:27.069Z,20.17
2022-08-18T04:33:29.873Z,13.40
2022-08-18T04:35:32.530Z,14.05
2022-08-18T04:37:38.108Z,16.20
2022-08-18T04:39:44.625Z,16.25
2022-08-18T04:41:48.389Z,17.10
2022-08-18T04:43:52.677Z,20.90
2022-08-18T04:46:01.738Z,24.73
2022-08-18T04:48:04.177Z,16.60
2022-08-18T04:50:06.874Z,21.60
2022-08-18T04:52:40.142Z,16.48
2022-08-18T04:54:43.760Z,15.27
2022-08-18T04:56:45.675Z,17.90
2022-08-18T04:58:52.145Z,15.65
2022-08-18T05:01:00.276Z,17.98
2022-08-18T05:03:02.321Z,17.20
2022-08-18T05:05:05.478Z,16.77
2022-08-18T05:07:10.849Z,17.80
2022-08-18T05:09:16.772Z,16.70
2022-08-18T05:11:28.551Z,13.70
2022-08-18T05:13:32.078Z,13.90
2022-08-18T05:15:52.702Z,18.20
2022-08-18T05:17:56.683Z,19.75
2022-08-18T05:20:01.624Z,22.48
2022-08-18T05:22:07.404Z,20.63
2022-08-18T05:24:10.912Z,16.90
2022-08-18T05:26:14.835Z,18.90
2022-08-18T05:28:17.165Z,16.10
2022-08-18T05:30:19.200Z,18.00
2022-08-18T05:32:37.327Z,16.77
2022-08-18T05:34:43.778Z,16.98
2022-08-18T05:36:57.656Z,19.30
2022-08-18T05:39:11.705Z,22.80
2022-08-18T05:41:24.340Z,14.23
2022-08-18T05:43:28.857Z,11.98
2022-08-18T05:45:30.978Z,16.55
2022-08-18T05:47:33.348Z,16.13
2022-08-18T05:49:37.092Z,14.80
2022-08-18T05:51:43.823Z,18.73
2022-08-18T05:54:05.013Z,20.80
2022-08-18T05:56:27.277Z,20.17
2022-08-18T05:58:40.249Z,16.73
2022-08-18T06:00:48.460Z,18.75
2022-08-18T06:03:02.148Z,16.60
2022-08-18T06:05:08.432Z,24.73
2022-08-18T06:07:15.792Z,16.25
2022-08-18T06:09:22.378Z,15.07
2022-08-18T06:11:25.462Z,20.65
2022-08-18T06:13:27.528Z,15.63
2022-08-18T06:15:52.036Z,16.73
2022-08-18T06:18:08.331Z,15.02
2022-08-18T06:20:36.185Z,15.10
2022-08-18T06:22:53.469Z,14.88
2022-08-18T06:25:02.453Z,16.30
2022-08-18T06:27:33.334Z,12.55
2022-08-18T06:29:47.867Z,23.00
2022-08-18T06:32:23.513Z,11.10
2022-08-18T06:35:00.366Z,20.67
2022-08-18T06:37:10.970Z,11.82
2022-08-18T06:39:44.892Z,19.02
2022-08-18T06:41:51.394Z,14.45
2022-08-18T06:44:19.838Z,12.07
2022-08-18T06:46:47.849Z,9.77
2022-08-18T06:49:03.640Z,12.13
2022-08-18T06:51:08.919Z,12.45
2022-08-18T06:53:27.021Z,14.93
2022-08-18T06:55:45.681Z,12.60
2022-08-18T06:57:57.904Z,9.80
2022-08-18T07:00:21.606Z,14.40
2022-08-18T07:02:39.169Z,13.80
2022-08-18T07:04:57.941Z,12.73
2022-08-18T07:07:17.495Z,20.40
2022-08-18T07:09:24.277Z,17.02
2022-08-18T07:11:33.226Z,15.55
2022-08-18T07:13:40.437Z,9.55
2022-08-18T07:15:48.237Z,13.82
2022-08-18T07:17:51.624Z,12.48
2022-08-18T07:20:05.032Z,10.77
2022-08-18T07:22:17.412Z,8.75
2022-08-18T07:24:28.692Z,13.73
2022-08-18T07:26:31.031Z,11.93
2022-08-18T07:28:39.917Z,12.82
2022-08-18T07:30:54.651Z,9.05
2022-08-18T07:33:18.611Z,8.70
2022-08-18T07:35:35.504Z,11.43
2022-08-18T07:37:52.413Z,13.95
2022-08-18T07:40:05.556Z,11.30
2022-08-18T07:42:53.614Z,12.77
2022-08-18T07:44:52.164Z,8.23
2022-08-18T07:47:21.086Z,13.20
2022-08-18T07:49:26.508Z,9.75
2022-08-18T07:51:56.997Z,12.77
2022-08-18T07:54:50.506Z,11.68
2022-08-18T07:57:14.210Z,10.60
2022-08-18T07:59:18.356Z,12.25
2022-08-18T08:01:50.134Z,11.18
2022-08-18T08:04:25.933Z,8.30
2022-08-18T08:07:06.484Z,14.88
2022-08-18T08:09:22.803Z,13.75
2022-08-18T08:11:36.298Z,11.88
2022-08-18T08:13:55.818Z,9.00
2022-08-18T08:16:26.771Z,7.05
2022-08-18T08:18:44.463Z,6.80
2022-08-18T08:20:55.201Z,9.50
2022-08-18T08:23:22.101Z,7.68
2022-08-18T08:28:13.921Z,7.70
2022-08-18T08:30:20.007Z,5.80
2022-08-18T08:32:27.941Z,5.00
2022-08-18T08:34:57.704Z,9.57
2022-08-18T08:37:04.474Z,3.90
2022-08-18T08:39:50.244Z,8.85
2022-08-18T08:42:30.175Z,5.63
2022-08-18T08:44:23.104Z,4.57
2022-08-18T08:46:31.112Z,5.07
2022-08-18T08:48:36.690Z,5.32
2022-08-18T08:50:57.548Z,8.15
2022-08-18T08:53:14.679Z,4.40
2022-08-18T08:55:27.279Z,5.90
2022-08-18T08:57:38.954Z,6.13
2022-08-18T08:59:44.966Z,15.05
2022-08-18T09:02:08.871Z,5.43
2022-08-18T09:04:54.718Z,4.60
2022-08-18T09:07:47.336Z,5.78
2022-08-18T09:09:57.421Z,9.98
2022-08-18T09:12:02.551Z,9.55
2022-08-18T09:14:39.274Z,4.78
2022-08-18T09:17:10.592Z,8.05
2022-08-18T09:19:34.529Z,6.00
2022-08-18T09:21:57.307Z,5.63
2022-08-18T09:24:13.174Z,8.10
2022-08-18T09:26:27.809Z,8.85
2022-08-18T09:28:29.636Z,6.13
2022-08-18T09:30:43.062Z,5.00
2022-08-18T09:33:18.577Z,8.07
2022-08-18T09:35:29.753Z,6.18
2022-08-18T09:38:12.366Z,7.45
2022-08-18T09:41:01.760Z,5.50
2022-08-18T09:43:26.054Z,6.78
2022-08-18T09:45:33.507Z,6.05
2022-08-18T09:47:35.945Z,6.05
2022-08-18T09:49:47.896Z,7.65
2022-08-18T09:51:58.120Z,5.95
2022-08-18T09:54:12.189Z,4.88
2022-08-18T09:56:19.756Z,6.47
2022-08-18T09:58:51.207Z,7.50
2022-08-18T10:01:41.313Z,6.13
2022-08-18T10:03:43.569Z,7.00
2022-08-18T10:06:03.201Z,7.05
2022-08-18T10:08:06.190Z,8.07
2022-08-18T10:11:01.270Z,4.53
2022-08-18T10:13:31.735Z,4.00
2022-08-18T10:15:42.924Z,6.25
2022-08-18T10:17:59.346Z,7.63
2022-08-18T10:20:41.250Z,4.95
2022-08-18T10:22:47.907Z,4.30
2022-08-18T10:24:56.369Z,3.72
2022-08-18T10:27:02.687Z,6.93
2022-08-18T10:29:24.894Z,2.45
2022-08-18T10:31:28.893Z,4.78
2022-08-18T10:35:58.450Z,3.40
2022-08-18T10:38:06.131Z,6.10
2022-08-18T10:40:13.337Z,4.70
2022-08-18T10:42:30.991Z,4.15
2022-08-18T10:44:47.478Z,4.50
2022-08-18T10:46:50.301Z,5.47
2022-08-18T10:49:17.382Z,7.00
2022-08-18T10:52:01.159Z,3.45
2022-08-18T10:57:16.170Z,7.60
2022-08-18T10:59:47.713Z,6.95
2022-08-18T11:02:18.609Z,4.20
2022-08-18T11:06:51.542Z,6.35
2022-08-18T11:09:01.375Z,5.80
2022-08-18T11:11:36.989Z,4.50
2022-08-18T11:13:49.142Z,6.38
2022-08-18T11:15:57.110Z,5.53
2022-08-18T11:18:10.769Z,4.78
2022-08-18T11:20:18.161Z,5.68
2022-08-18T11:22:31.361Z,6.93
2022-08-18T11:24:35.778Z,7.95
2022-08-18T11:26:52.795Z,8.18
2022-08-18T11:28:55.895Z,5.95
2022-08-18T11:30:59.349Z,7.47
2022-08-18T11:33:02.967Z,5.35
2022-08-18T11:35:12.811Z,3.35
2022-08-18T11:37:51.885Z,4.10
2022-08-18T11:39:58.515Z,7.20
2022-08-18T11:42:00.914Z,4.70
2022-08-18T11:44:05.745Z,4.63
2022-08-18T11:46:29.953Z,5.32
2022-08-18T11:48:51.715Z,7.10
2022-08-18T11:51:03.742Z,5.95
2022-08-18T11:53:37.644Z,5.47
2022-08-18T11:55:40.647Z,3.58
2022-08-18T12:00:42.630Z,3.95
2022-08-18T12:02:45.636Z,4.40
2022-08-18T12:04:53.169Z,5.03
2022-08-18T12:07:14.824Z,4.82
2022-08-18T12:12:14.845Z,5.28
2022-08-18T12:16:46.604Z,5.38
2022-08-18T12:18:52.110Z,4.97
2022-08-18T12:23:19.194Z,4.88
2022-08-18T12:27:32.022Z,5.43
2022-08-18T12:29:43.484Z,4.80
2022-08-18T12:31:48.590Z,4.20
2022-08-18T12:36:13.658Z,3.35
2022-08-18T12:38:17.891Z,4.05
2022-08-18T12:40:20.195Z,3.28
2022-08-18T12:42:22.797Z,6.88
2022-08-18T12:44:27.303Z,5.63
2022-08-18T12:46:30.523Z,4.97
2022-08-18T12:48:33.674Z,4.88
2022-08-18T12:50:49.837Z,5.03
2022-08-18T12:52:56.803Z,3.75
2022-08-18T12:54:59.483Z,6.07
2022-08-18T12:57:02.618Z,4.72
2022-08-18T12:59:10.138Z,5.53
2022-08-18T13:01:13.065Z,3.00
2022-08-18T13:03:19.565Z,5.35
2022-08-18T13:05:27.547Z,4.93
2022-08-18T13:07:31.687Z,2.85
2022-08-18T13:09:52.757Z,3.78
2022-08-18T13:11:55.346Z,3.92
2022-08-18T13:14:03.101Z,5.18
2022-08-18T13:16:16.237Z,4.25
2022-08-18T13:18:18.595Z,3.17
2022-08-18T13:20:21.151Z,4.20
2022-08-18T13:22:23.059Z,3.03
2022-08-18T13:24:37.448Z,3.60
2022-08-18T13:26:45.857Z,4.20
2022-08-18T13:28:57.014Z,3.70
2022-08-18T13:31:01.845Z,2.90
2022-08-18T13:33:05.712Z,3.53
2022-08-18T13:35:26.931Z,3.58
2022-08-18T13:37:37.399Z,2.80
2022-08-18T13:39:43.953Z,3.50
2022-08-18T13:41:48.138Z,3.80
2022-08-18T13:43:50.480Z,3.15
2022-08-18T13:45:56.001Z,4.82
2022-08-18T13:47:58.593Z,3.97
2022-08-18T13:50:00.514Z,3.22
2022-08-18T13:52:12.164Z,4.15
2022-08-18T13:54:31.469Z,4.57
2022-08-18T13:56:36.468Z,2.90
2022-08-18T13:58:41.634Z,4.25
2022-08-18T14:01:22.463Z,3.03
2022-08-18T14:03:31.072Z,6.72
2022-08-18T14:05:51.268Z,2.88
2022-08-18T14:07:55.061Z,3.67
2022-08-18T14:09:59.258Z,5.80
2022-08-18T14:12:22.582Z,3.85
2022-08-18T14:14:27.811Z,3.97
2022-08-18T14:16:30.772Z,3.88
2022-08-18T14:18:33.093Z,4.63
2022-08-18T14:20:53.848Z,12.63
2022-08-18T14:23:21.712Z,3.00
2022-08-18T14:25:44.567Z,3.70
2022-08-18T14:27:56.289Z,2.80
2022-08-18T14:29:59.333Z,4.72
2022-08-18T14:32:03.040Z,3.35
2022-08-18T14:34:05.251Z,5.32
2022-08-18T14:36:09.269Z,2.60
2022-08-18T14:38:11.841Z,3.63
2022-08-18T14:40:13.868Z,2.60
2022-08-18T14:42:41.095Z,4.65
2022-08-18T14:44:45.784Z,5.32
2022-08-18T14:46:53.979Z,6.13
2022-08-18T14:48:56.882Z,4.82
2022-08-18T14:51:01.044Z,3.28
2022-08-18T14:53:06.570Z,3.45
2022-08-18T14:55:11.368Z,3.33
2022-08-18T14:57:13.311Z,3.03
2022-08-18T14:59:16.786Z,2.80
2022-08-18T15:01:22.214Z,3.92
2022-08-18T15:03:31.457Z,4.03
2022-08-18T15:05:34.435Z,5.30
2022-08-18T15:07:40.060Z,3.28
2022-08-18T15:09:43.183Z,4.45
2022-08-18T15:11:45.172Z,4.65
2022-08-18T15:13:47.626Z,3.35
2022-08-18T15:15:52.021Z,4.95
2022-08-18T15:17:54.567Z,3.75
2022-08-18T15:20:01.090Z,4.80
2022-08-18T15:22:22.355Z,4.70
2022-08-18T15:24:43.159Z,4.32
2022-08-18T15:26:46.410Z,4.07
2022-08-18T15:28:53.881Z,3.53
2022-08-18T15:31:17.850Z,4.47
2022-08-18T15:33:24.723Z,4.63
2022-08-18T15:35:30.353Z,3.13
2022-08-18T15:37:37.281Z,3.15
2022-08-18T15:39:39.653Z,3.65
2022-08-18T15:41:47.136Z,3.88
2022-08-18T15:43:50.512Z,4.45
2022-08-18T15:45:57.941Z,3.03
2022-08-18T15:48:00.362Z,4.60
2022-08-18T15:50:06.764Z,3.35
2022-08-18T15:52:25.960Z,4.15
2022-08-18T15:56:31.793Z,3.47
2022-08-18T15:58:34.492Z,4.75
2022-08-18T16:00:39.239Z,3.10
2022-08-18T16:02:48.368Z,2.80
2022-08-18T16:04:50.623Z,3.42
2022-08-18T16:06:55.212Z,2.85
2022-08-18T16:08:57.631Z,3.67
2022-08-18T16:11:07.339Z,4.72
2022-08-18T16:13:09.704Z,4.25
2022-08-18T16:17:23.716Z,6.10
2022-08-18T16:19:25.906Z,4.45
2022-08-18T16:21:32.504Z,3.92
2022-08-18T16:23:34.450Z,3.67
2022-08-18T16:25:43.466Z,3.65
2022-08-18T16:27:47.881Z,5.20
2022-08-18T16:29:50.025Z,2.85
2022-08-18T16:31:52.448Z,5.32
2022-08-18T16:33:57.113Z,2.65
2022-08-18T16:36:06.808Z,4.82
2022-08-18T16:38:09.685Z,5.35
2022-08-18T16:40:12.898Z,6.45
2022-08-18T16:42:15.209Z,5.35
2022-08-18T16:44:17.432Z,3.60
2022-08-18T16:46:26.543Z,3.90
2022-08-18T16:48:32.926Z,3.13
2022-08-18T16:50:37.853Z,4.95
2022-08-18T16:54:43.312Z,3.85
2022-08-18T16:56:45.330Z,4.55
2022-08-18T16:59:06.351Z,3.63
2022-08-18T17:01:27.801Z,4.35
2022-08-18T17:03:54.470Z,5.25
2022-08-18T17:06:05.339Z,2.58
2022-08-18T17:08:10.062Z,4.45
2022-08-18T17:10:12.002Z,5.95
2022-08-18T17:12:13.995Z,3.72
2022-08-18T17:14:16.193Z,5.03
2022-08-18T17:16:24.866Z,2.60
2022-08-18T17:18:27.579Z,3.55
2022-08-18T17:20:29.481Z,4.32
2022-08-18T17:22:32.415Z,4.10
2022-08-18T17:24:34.416Z,3.35
2022-08-18T17:26:53.245Z,4.68
2022-08-18T17:29:05.832Z,5.90
2022-08-18T17:31:09.028Z,4.15
2022-08-18T17:33:15.858Z,5.37
2022-08-18T17:35:30.286Z,4.00
2022-08-18T17:37:34.502Z,3.40
2022-08-18T17:39:54.435Z,3.70
2022-08-18T17:42:14.983Z,4.55
2022-08-18T17:44:19.261Z,4.95
2022-08-18T17:48:46.021Z,5.22
2022-08-18T17:51:25.844Z,4.95
2022-08-18T17:53:30.069Z,5.30
2022-08-18T17:55:50.061Z,5.90
2022-08-18T17:58:03.585Z,4.07
2022-08-18T18:00:10.312Z,4.47
2022-08-18T18:02:18.264Z,3.95
2022-08-18T18:04:32.029Z,4.43
2022-08-18T18:06:34.636Z,6.60
2022-08-18T18:08:59.330Z,4.70
2022-08-18T18:11:11.345Z,4.47
2022-08-18T18:13:23.191Z,4.90
2022-08-18T18:15:32.417Z,3.72
2022-08-18T18:17:38.045Z,4.38
2022-08-18T18:19:42.571Z,2.95
2022-08-18T18:22:00.958Z,4.65
2022-08-18T18:24:07.491Z,4.45
2022-08-18T18:26:40.073Z,5.38
2022-08-18T18:28:42.034Z,3.65
2022-08-18T18:30:43.980Z,2.97
2022-08-18T18:32:59.195Z,4.65
2022-08-18T18:35:16.112Z,3.80
2022-08-18T18:37:29.320Z,4.82
2022-08-18T18:39:35.863Z,4.10
2022-08-18T18:41:40.078Z,4.07
2022-08-18T18:43:47.489Z,5.07
2022-08-18T18:46:10.711Z,5.20
2022-08-18T18:48:51.259Z,4.35
2022-08-18T18:50:53.050Z,4.35
2022-08-18T18:53:08.435Z,5.03
2022-08-18T18:55:29.749Z,4.70
2022-08-18T18:58:09.327Z,5.47
2022-08-18T19:00:26.327Z,4.20
2022-08-18T19:02:40.695Z,5.95
2022-08-18T19:04:59.170Z,7.28
2022-08-18T19:07:21.294Z,4.38
2022-08-18T19:09:38.368Z,2.75
2022-08-18T19:11:53.761Z,4.20
2022-08-18T19:14:02.867Z,5.65
2022-08-18T19:16:23.915Z,5.70
2022-08-18T19:18:38.711Z,4.80
2022-08-18T19:22:01.990Z,3.10
2022-08-18T19:23:45.231Z,5.70
2022-08-18T19:25:51.630Z,3.38
2022-08-18T19:27:57.516Z,4.20
2022-08-18T19:30:09.776Z,5.05
2022-08-18T19:32:19.940Z,3.50
2022-08-18T19:34:31.173Z,4.45
2022-08-18T19:36:52.257Z,5.50
2022-08-18T19:39:12.373Z,6.78
2022-08-18T19:41:20.120Z,5.78
2022-08-18T19:43:43.264Z,3.65
2022-08-18T19:45:53.357Z,7.28
2022-08-18T19:48:12.281Z,3.72
2022-08-18T19:50:33.607Z,4.00
2022-08-18T19:52:47.150Z,3.90
2022-08-18T19:55:19.328Z,4.25
2022-08-18T19:57:33.076Z,3.67
2022-08-18T20:00:10.312Z,4.70
2022-08-18T20:02:39.433Z,5.07
2022-08-18T20:05:15.273Z,3.45
2022-08-18T20:07:48.981Z,5.35
2022-08-18T20:10:30.666Z,6.85
2022-08-18T20:12:42.610Z,5.85
2022-08-18T20:15:06.770Z,9.05
2022-08-18T20:17:16.797Z,6.20
2022-08-18T20:19:40.072Z,7.30
2022-08-18T20:21:45.937Z,7.60
2022-08-18T20:24:33.528Z,6.60
2022-08-18T20:26:36.050Z,5.95
2022-08-18T20:28:40.553Z,8.25
2022-08-18T20:30:52.726Z,7.65
2022-08-18T20:33:11.604Z,6.88
2022-08-18T20:35:19.612Z,6.82
2022-08-18T20:37:25.728Z,5.35
2022-08-18T20:39:43.784Z,6.55
2022-08-18T20:41:50.636Z,7.45
2022-08-18T20:44:03.657Z,8.48
2022-08-18T20:46:36.794Z,6.22
2022-08-18T20:49:06.220Z,4.72
2022-08-18T20:51:16.223Z,4.13
2022-08-18T20:53:39.852Z,8.25
2022-08-18T20:55:41.827Z,6.07
2022-08-18T20:57:44.296Z,3.92
2022-08-18T20:59:53.043Z,5.05
2022-08-18T21:01:58.242Z,5.32
2022-08-18T21:04:00.460Z,7.93
2022-08-18T21:06:05.172Z,6.72
2022-08-18T21:08:19.730Z,7.47
2022-08-18T21:10:28.776Z,6.80
2022-08-18T21:12:34.674Z,6.15
2022-08-18T21:14:36.763Z,5.97
2022-08-18T21:16:48.200Z,7.70
2022-08-18T21:18:55.795Z,3.47
2022-08-18T21:20:59.436Z,6.30
2022-08-18T21:23:07.856Z,4.50
2022-08-18T21:25:15.491Z,4.93
2022-08-18T21:27:38.765Z,5.93
2022-08-18T21:29:49.152Z,4.95
2022-08-18T21:31:51.712Z,5.20
2022-08-18T21:33:59.413Z,7.40
2022-08-18T21:36:13.869Z,7.78
2022-08-18T21:40:49.851Z,5.75
2022-08-18T21:42:52.493Z,6.70
2022-08-18T21:45:00.839Z,4.20
2022-08-18T21:47:14.375Z,5.63
2022-08-18T21:49:26.813Z,5.00
2022-08-18T21:51:41.765Z,7.47
2022-08-18T21:53:44.042Z,5.40
2022-08-18T21:55:51.463Z,5.80
2022-08-18T21:58:08.606Z,5.45
2022-08-18T22:00:23.025Z,4.75
2022-08-18T22:02:24.934Z,4.40
2022-08-18T22:04:33.554Z,5.68
2022-08-18T22:06:40.301Z,4.60
2022-08-18T22:08:51.294Z,6.03
2022-08-18T22:11:59.746Z,7.57
2022-08-18T22:14:30.083Z,6.63
2022-08-18T22:16:37.978Z,6.70
2022-08-18T22:18:40.187Z,4.03
2022-08-18T22:20:47.667Z,5.13
2022-08-18T22:23:08.333Z,6.50
2022-08-18T22:25:12.165Z,5.50
2022-08-18T22:27:21.398Z,5.72
2022-08-18T22:29:33.976Z,5.90
2022-08-18T22:31:40.100Z,7.22
2022-08-18T22:33:42.117Z,4.70
2022-08-18T22:35:54.635Z,8.23
2022-08-18T22:37:56.592Z,5.05
2022-08-18T22:40:10.315Z,4.43
2022-08-18T22:42:14.038Z,5.30
2022-08-18T22:44:16.342Z,4.70
2022-08-18T22:46:24.382Z,9.45
2022-08-18T22:48:26.686Z,5.72
2022-08-18T22:50:28.671Z,3.63
2022-08-18T22:52:34.398Z,3.53
2022-08-18T22:54:39.396Z,4.10
2022-08-18T22:56:53.786Z,4.07
2022-08-18T22:58:57.541Z,6.70
2022-08-18T23:01:05.813Z,5.38
2022-08-18T23:03:08.008Z,4.22
2022-08-18T23:05:11.710Z,7.38
2022-08-18T23:07:14.405Z,8.10
2022-08-18T23:09:16.402Z,5.20
2022-08-18T23:11:18.495Z,8.10
2022-08-18T23:13:21.156Z,6.72
2022-08-18T23:15:40.048Z,6.70
2022-08-18T23:17:43.529Z,3.45
2022-08-18T23:19:47.192Z,3.22
2022-08-18T23:21:49.374Z,2.95
2022-08-18T23:23:51.231Z,5.00
2022-08-18T23:25:55.715Z,2.65
2022-08-18T23:27:57.614Z,4.80
2022-08-18T23:29:59.581Z,5.32
2022-08-18T23:32:05.878Z,6.38
2022-08-18T23:34:08.822Z,5.55
2022-08-18T23:36:10.906Z,5.55
2022-08-18T23:38:15.794Z,4.15
2022-08-18T23:40:18.423Z,4.82
2022-08-18T23:42:23.245Z,5.88
2022-08-18T23:44:27.703Z,6.57
2022-08-18T23:46:32.974Z,6.13
2022-08-18T23:48:34.836Z,5.03
2022-08-18T23:50:42.684Z,5.03
2022-08-18T23:52:44.975Z,6.30
2022-08-18T23:54:49.522Z,6.20
2022-08-18T23:56:51.540Z,10.23
2022-08-18T23:58:57.173Z,8.35
